sensor_id;sensor_type;location;lat;lon;timestamp;P1;durP1;ratioP1;P2;durP2;ratioP2
7753;SDS011;3921;42.266;23.122;2023-02-07T00:01:48;6.13;;;3.90;;
7753;SDS011;3921;42.266;23.122;2023-02-07T00:04:17;6.13;;;3.60;;
7753;SDS011;3921;42.266;23.122;2023-02-07T00:06:50;7.17;;;4.17;;
7753;SDS011;3921;42.266;23.122;2023-02-07T00:09:17;5.27;;;3.83;;
7753;SDS011;3921;42.266;23.122;2023-02-07T00:11:50;5.47;;;3.83;;
7753;SDS011;3921;42.266;23.122;2023-02-07T00:14:17;5.07;;;3.53;;
7753;SDS011;3921;42.266;23.122;2023-02-07T00:16:44;6.30;;;4.10;;
7753;SDS011;3921;42.266;23.122;2023-02-07T00:19:11;6.03;;;3.43;;
7753;SDS011;3921;42.266;23.122;2023-02-07T00:21:41;5.37;;;4.07;;
7753;SDS011;3921;42.266;23.122;2023-02-07T00:24:11;5.00;;;3.60;;
7753;SDS011;3921;42.266;23.122;2023-02-07T00:26:39;4.27;;;3.43;;
7753;SDS011;3921;42.266;23.122;2023-02-07T00:29:09;4.67;;;3.60;;
7753;SDS011;3921;42.266;23.122;2023-02-07T00:31:37;6.10;;;3.87;;
7753;SDS011;3921;42.266;23.122;2023-02-07T00:34:05;6.33;;;3.60;;
7753;SDS011;3921;42.266;23.122;2023-02-07T00:36:34;7.20;;;3.70;;
7753;SDS011;3921;42.266;23.122;2023-02-07T00:39:03;5.97;;;3.93;;
7753;SDS011;3921;42.266;23.122;2023-02-07T00:41:32;5.57;;;3.87;;
7753;SDS011;3921;42.266;23.122;2023-02-07T00:43:59;6.00;;;3.83;;
7753;SDS011;3921;42.266;23.122;2023-02-07T00:46:29;6.27;;;3.97;;
7753;SDS011;3921;42.266;23.122;2023-02-07T00:48:57;5.67;;;3.63;;
7753;SDS011;3921;42.266;23.122;2023-02-07T00:51:27;5.40;;;3.87;;
7753;SDS011;3921;42.266;23.122;2023-02-07T00:53:54;6.10;;;3.97;;
7753;SDS011;3921;42.266;23.122;2023-02-07T00:56:23;6.27;;;4.27;;
7753;SDS011;3921;42.266;23.122;2023-02-07T00:58:51;7.33;;;3.83;;
7753;SDS011;3921;42.266;23.122;2023-02-07T01:01:19;6.63;;;4.63;;
7753;SDS011;3921;42.266;23.122;2023-02-07T01:03:48;6.47;;;4.40;;
7753;SDS011;3921;42.266;23.122;2023-02-07T01:06:16;7.13;;;4.20;;
7753;SDS011;3921;42.266;23.122;2023-02-07T01:08:43;5.47;;;4.23;;
7753;SDS011;3921;42.266;23.122;2023-02-07T01:11:11;5.77;;;3.80;;
7753;SDS011;3921;42.266;23.122;2023-02-07T01:13:41;5.70;;;4.23;;
7753;SDS011;3921;42.266;23.122;2023-02-07T01:16:15;5.53;;;3.97;;
7753;SDS011;3921;42.266;23.122;2023-02-07T01:18:43;8.17;;;4.50;;
7753;SDS011;3921;42.266;23.122;2023-02-07T01:21:15;5.93;;;4.20;;
7753;SDS011;3921;42.266;23.122;2023-02-07T01:23:44;7.30;;;4.50;;
7753;SDS011;3921;42.266;23.122;2023-02-07T01:26:11;7.80;;;4.27;;
7753;SDS011;3921;42.266;23.122;2023-02-07T01:28:41;6.73;;;4.57;;
7753;SDS011;3921;42.266;23.122;2023-02-07T01:31:09;7.53;;;4.40;;
7753;SDS011;3921;42.266;23.122;2023-02-07T01:33:37;6.37;;;4.33;;
7753;SDS011;3921;42.266;23.122;2023-02-07T01:36:05;6.23;;;4.40;;
7753;SDS011;3921;42.266;23.122;2023-02-07T01:38:35;6.80;;;4.40;;
7753;SDS011;3921;42.266;23.122;2023-02-07T01:41:02;7.83;;;4.40;;
7753;SDS011;3921;42.266;23.122;2023-02-07T01:43:30;6.50;;;4.00;;
7753;SDS011;3921;42.266;23.122;2023-02-07T01:45:57;5.93;;;4.03;;
7753;SDS011;3921;42.266;23.122;2023-02-07T01:48:26;5.17;;;3.97;;
7753;SDS011;3921;42.266;23.122;2023-02-07T01:50:58;8.77;;;4.47;;
7753;SDS011;3921;42.266;23.122;2023-02-07T01:53:28;6.50;;;4.47;;
7753;SDS011;3921;42.266;23.122;2023-02-07T01:56:02;7.53;;;4.27;;
7753;SDS011;3921;42.266;23.122;2023-02-07T01:58:33;6.53;;;4.33;;
7753;SDS011;3921;42.266;23.122;2023-02-07T02:01:02;5.97;;;4.20;;
7753;SDS011;3921;42.266;23.122;2023-02-07T02:03:33;6.60;;;4.03;;
7753;SDS011;3921;42.266;23.122;2023-02-07T02:06:07;6.10;;;4.27;;
7753;SDS011;3921;42.266;23.122;2023-02-07T02:08:36;5.83;;;4.33;;
7753;SDS011;3921;42.266;23.122;2023-02-07T02:11:11;5.40;;;3.80;;
7753;SDS011;3921;42.266;23.122;2023-02-07T02:13:53;6.67;;;4.13;;
7753;SDS011;3921;42.266;23.122;2023-02-07T02:16:33;5.83;;;4.17;;
7753;SDS011;3921;42.266;23.122;2023-02-07T02:19:15;5.53;;;4.20;;
7753;SDS011;3921;42.266;23.122;2023-02-07T02:25:15;6.10;;;3.80;;
7753;SDS011;3921;42.266;23.122;2023-02-07T02:28:10;6.40;;;4.30;;
7753;SDS011;3921;42.266;23.122;2023-02-07T02:34:11;6.30;;;3.67;;
7753;SDS011;3921;42.266;23.122;2023-02-07T02:36:49;6.37;;;4.00;;
7753;SDS011;3921;42.266;23.122;2023-02-07T02:39:25;5.60;;;4.00;;
7753;SDS011;3921;42.266;23.122;2023-02-07T02:42:00;5.33;;;4.07;;
7753;SDS011;3921;42.266;23.122;2023-02-07T02:44:37;5.40;;;4.00;;
7753;SDS011;3921;42.266;23.122;2023-02-07T02:47:12;5.73;;;3.77;;
7753;SDS011;3921;42.266;23.122;2023-02-07T02:49:41;5.00;;;3.77;;
7753;SDS011;3921;42.266;23.122;2023-02-07T02:52:10;6.40;;;4.10;;
7753;SDS011;3921;42.266;23.122;2023-02-07T02:54:37;5.77;;;4.37;;
7753;SDS011;3921;42.266;23.122;2023-02-07T02:57:13;5.70;;;4.03;;
7753;SDS011;3921;42.266;23.122;2023-02-07T03:00:05;8.57;;;3.70;;
7753;SDS011;3921;42.266;23.122;2023-02-07T03:02:45;4.80;;;3.77;;
7753;SDS011;3921;42.266;23.122;2023-02-07T03:05:32;6.53;;;4.10;;
7753;SDS011;3921;42.266;23.122;2023-02-07T03:08:11;6.53;;;3.87;;
7753;SDS011;3921;42.266;23.122;2023-02-07T03:10:51;5.67;;;4.00;;
7753;SDS011;3921;42.266;23.122;2023-02-07T03:13:25;4.57;;;3.63;;
7753;SDS011;3921;42.266;23.122;2023-02-07T03:15:58;5.57;;;3.37;;
7753;SDS011;3921;42.266;23.122;2023-02-07T03:18:38;6.90;;;4.20;;
7753;SDS011;3921;42.266;23.122;2023-02-07T03:21:16;6.43;;;4.20;;
7753;SDS011;3921;42.266;23.122;2023-02-07T03:23:52;6.13;;;4.37;;
7753;SDS011;3921;42.266;23.122;2023-02-07T03:26:23;5.77;;;4.37;;
7753;SDS011;3921;42.266;23.122;2023-02-07T03:28:52;5.53;;;3.80;;
7753;SDS011;3921;42.266;23.122;2023-02-07T03:31:21;6.80;;;3.80;;
7753;SDS011;3921;42.266;23.122;2023-02-07T03:33:50;5.80;;;4.10;;
7753;SDS011;3921;42.266;23.122;2023-02-07T03:36:35;5.50;;;3.73;;
7753;SDS011;3921;42.266;23.122;2023-02-07T03:39:09;4.93;;;3.77;;
7753;SDS011;3921;42.266;23.122;2023-02-07T03:41:37;5.97;;;4.00;;
7753;SDS011;3921;42.266;23.122;2023-02-07T03:44:07;4.77;;;3.60;;
7753;SDS011;3921;42.266;23.122;2023-02-07T03:46:38;5.77;;;3.43;;
7753;SDS011;3921;42.266;23.122;2023-02-07T03:49:15;7.13;;;4.10;;
7753;SDS011;3921;42.266;23.122;2023-02-07T03:51:44;6.03;;;3.97;;
7753;SDS011;3921;42.266;23.122;2023-02-07T03:54:12;5.13;;;3.57;;
7753;SDS011;3921;42.266;23.122;2023-02-07T03:56:40;4.90;;;3.63;;
7753;SDS011;3921;42.266;23.122;2023-02-07T03:59:07;5.40;;;3.70;;
7753;SDS011;3921;42.266;23.122;2023-02-07T04:01:34;4.43;;;3.60;;
7753;SDS011;3921;42.266;23.122;2023-02-07T04:04:06;5.90;;;3.70;;
7753;SDS011;3921;42.266;23.122;2023-02-07T04:06:33;6.80;;;3.77;;
7753;SDS011;3921;42.266;23.122;2023-02-07T04:09:02;6.53;;;4.27;;
7753;SDS011;3921;42.266;23.122;2023-02-07T04:11:29;5.37;;;3.57;;
7753;SDS011;3921;42.266;23.122;2023-02-07T04:13:57;5.33;;;3.57;;
7753;SDS011;3921;42.266;23.122;2023-02-07T04:16:24;5.67;;;3.70;;
7753;SDS011;3921;42.266;23.122;2023-02-07T04:18:51;4.83;;;3.50;;
7753;SDS011;3921;42.266;23.122;2023-02-07T04:21:18;6.43;;;4.07;;
7753;SDS011;3921;42.266;23.122;2023-02-07T04:23:46;5.13;;;3.63;;
7753;SDS011;3921;42.266;23.122;2023-02-07T04:26:19;5.10;;;3.80;;
7753;SDS011;3921;42.266;23.122;2023-02-07T04:28:49;5.40;;;3.93;;
7753;SDS011;3921;42.266;23.122;2023-02-07T04:31:16;5.17;;;3.73;;
7753;SDS011;3921;42.266;23.122;2023-02-07T04:33:44;6.00;;;4.13;;
7753;SDS011;3921;42.266;23.122;2023-02-07T04:36:11;6.10;;;3.83;;
7753;SDS011;3921;42.266;23.122;2023-02-07T04:38:39;9.67;;;4.03;;
7753;SDS011;3921;42.266;23.122;2023-02-07T04:41:06;5.30;;;3.63;;
7753;SDS011;3921;42.266;23.122;2023-02-07T04:43:35;6.40;;;4.57;;
7753;SDS011;3921;42.266;23.122;2023-02-07T04:46:04;7.33;;;4.07;;
7753;SDS011;3921;42.266;23.122;2023-02-07T04:48:34;7.33;;;4.37;;
7753;SDS011;3921;42.266;23.122;2023-02-07T04:51:02;5.07;;;4.17;;
7753;SDS011;3921;42.266;23.122;2023-02-07T04:53:29;5.87;;;3.90;;
7753;SDS011;3921;42.266;23.122;2023-02-07T04:55:56;6.13;;;4.00;;
7753;SDS011;3921;42.266;23.122;2023-02-07T04:58:23;5.97;;;3.87;;
7753;SDS011;3921;42.266;23.122;2023-02-07T05:00:52;6.17;;;4.00;;
7753;SDS011;3921;42.266;23.122;2023-02-07T05:03:20;6.87;;;4.30;;
7753;SDS011;3921;42.266;23.122;2023-02-07T05:05:47;5.50;;;4.07;;
7753;SDS011;3921;42.266;23.122;2023-02-07T05:08:15;4.93;;;3.80;;
7753;SDS011;3921;42.266;23.122;2023-02-07T05:10:42;4.33;;;3.50;;
7753;SDS011;3921;42.266;23.122;2023-02-07T05:13:09;6.07;;;3.90;;
7753;SDS011;3921;42.266;23.122;2023-02-07T05:15:36;6.57;;;4.30;;
7753;SDS011;3921;42.266;23.122;2023-02-07T05:18:05;4.60;;;3.90;;
7753;SDS011;3921;42.266;23.122;2023-02-07T05:20:32;6.30;;;3.67;;
7753;SDS011;3921;42.266;23.122;2023-02-07T05:22:59;4.37;;;3.53;;
7753;SDS011;3921;42.266;23.122;2023-02-07T05:25:27;6.73;;;3.77;;
7753;SDS011;3921;42.266;23.122;2023-02-07T05:27:54;4.40;;;3.83;;
7753;SDS011;3921;42.266;23.122;2023-02-07T05:30:23;4.77;;;3.67;;
7753;SDS011;3921;42.266;23.122;2023-02-07T05:32:51;4.90;;;3.43;;
7753;SDS011;3921;42.266;23.122;2023-02-07T05:35:34;6.00;;;3.97;;
7753;SDS011;3921;42.266;23.122;2023-02-07T05:38:03;4.90;;;3.63;;
7753;SDS011;3921;42.266;23.122;2023-02-07T05:40:32;6.60;;;4.23;;
7753;SDS011;3921;42.266;23.122;2023-02-07T05:42:59;5.63;;;4.27;;
7753;SDS011;3921;42.266;23.122;2023-02-07T05:45:26;6.37;;;4.20;;
7753;SDS011;3921;42.266;23.122;2023-02-07T05:47:53;9.20;;;4.67;;
7753;SDS011;3921;42.266;23.122;2023-02-07T05:50:29;8.63;;;5.13;;
7753;SDS011;3921;42.266;23.122;2023-02-07T05:52:58;5.83;;;4.33;;
7753;SDS011;3921;42.266;23.122;2023-02-07T05:55:26;8.57;;;5.00;;
7753;SDS011;3921;42.266;23.122;2023-02-07T05:57:54;7.83;;;4.90;;
7753;SDS011;3921;42.266;23.122;2023-02-07T06:00:22;8.87;;;5.13;;
7753;SDS011;3921;42.266;23.122;2023-02-07T06:02:49;6.13;;;4.13;;
7753;SDS011;3921;42.266;23.122;2023-02-07T06:05:16;5.77;;;4.30;;
7753;SDS011;3921;42.266;23.122;2023-02-07T06:07:45;7.40;;;4.87;;
7753;SDS011;3921;42.266;23.122;2023-02-07T06:10:14;8.73;;;5.40;;
7753;SDS011;3921;42.266;23.122;2023-02-07T06:12:41;10.07;;;5.00;;
7753;SDS011;3921;42.266;23.122;2023-02-07T06:15:09;5.83;;;4.63;;
7753;SDS011;3921;42.266;23.122;2023-02-07T06:17:36;7.23;;;4.93;;
7753;SDS011;3921;42.266;23.122;2023-02-07T06:20:03;7.80;;;5.27;;
7753;SDS011;3921;42.266;23.122;2023-02-07T06:22:31;9.33;;;4.90;;
7753;SDS011;3921;42.266;23.122;2023-02-07T06:24:58;8.33;;;5.27;;
7753;SDS011;3921;42.266;23.122;2023-02-07T06:27:27;8.80;;;5.17;;
7753;SDS011;3921;42.266;23.122;2023-02-07T06:29:54;8.67;;;5.07;;
7753;SDS011;3921;42.266;23.122;2023-02-07T06:32:21;10.00;;;5.00;;
7753;SDS011;3921;42.266;23.122;2023-02-07T06:34:48;8.80;;;5.30;;
7753;SDS011;3921;42.266;23.122;2023-02-07T06:37:15;8.60;;;5.53;;
7753;SDS011;3921;42.266;23.122;2023-02-07T06:39:42;7.50;;;5.17;;
7753;SDS011;3921;42.266;23.122;2023-02-07T06:42:10;8.00;;;5.33;;
7753;SDS011;3921;42.266;23.122;2023-02-07T06:44:38;8.30;;;5.00;;
7753;SDS011;3921;42.266;23.122;2023-02-07T06:47:05;7.57;;;4.93;;
7753;SDS011;3921;42.266;23.122;2023-02-07T06:49:32;7.37;;;5.37;;
7753;SDS011;3921;42.266;23.122;2023-02-07T06:52:00;8.00;;;5.30;;
7753;SDS011;3921;42.266;23.122;2023-02-07T06:54:27;9.87;;;5.33;;
7753;SDS011;3921;42.266;23.122;2023-02-07T06:56:54;7.60;;;5.20;;
7753;SDS011;3921;42.266;23.122;2023-02-07T06:59:21;8.07;;;5.07;;
7753;SDS011;3921;42.266;23.122;2023-02-07T07:01:50;8.13;;;5.20;;
7753;SDS011;3921;42.266;23.122;2023-02-07T07:04:17;9.40;;;5.33;;
7753;SDS011;3921;42.266;23.122;2023-02-07T07:06:44;9.37;;;6.07;;
7753;SDS011;3921;42.266;23.122;2023-02-07T07:09:12;9.07;;;5.67;;
7753;SDS011;3921;42.266;23.122;2023-02-07T07:11:40;8.10;;;5.53;;
7753;SDS011;3921;42.266;23.122;2023-02-07T07:14:08;8.23;;;6.03;;
7753;SDS011;3921;42.266;23.122;2023-02-07T07:16:36;11.93;;;5.87;;
7753;SDS011;3921;42.266;23.122;2023-02-07T07:19:06;9.17;;;5.63;;
7753;SDS011;3921;42.266;23.122;2023-02-07T07:21:33;8.47;;;5.33;;
7753;SDS011;3921;42.266;23.122;2023-02-07T07:24:01;10.60;;;6.77;;
7753;SDS011;3921;42.266;23.122;2023-02-07T07:26:28;9.40;;;5.97;;
7753;SDS011;3921;42.266;23.122;2023-02-07T07:28:56;11.03;;;5.93;;
7753;SDS011;3921;42.266;23.122;2023-02-07T07:31:24;10.43;;;5.77;;
7753;SDS011;3921;42.266;23.122;2023-02-07T07:33:55;11.83;;;6.00;;
7753;SDS011;3921;42.266;23.122;2023-02-07T07:36:23;10.47;;;6.67;;
7753;SDS011;3921;42.266;23.122;2023-02-07T07:38:51;10.63;;;5.70;;
7753;SDS011;3921;42.266;23.122;2023-02-07T07:41:18;9.93;;;6.47;;
7753;SDS011;3921;42.266;23.122;2023-02-07T07:43:45;9.27;;;6.17;;
7753;SDS011;3921;42.266;23.122;2023-02-07T07:46:12;10.70;;;6.20;;
7753;SDS011;3921;42.266;23.122;2023-02-07T07:48:39;10.13;;;6.00;;
7753;SDS011;3921;42.266;23.122;2023-02-07T07:51:06;9.77;;;6.60;;
7753;SDS011;3921;42.266;23.122;2023-02-07T07:53:35;16.80;;;9.23;;
7753;SDS011;3921;42.266;23.122;2023-02-07T07:56:03;12.93;;;7.60;;
7753;SDS011;3921;42.266;23.122;2023-02-07T07:58:31;11.60;;;7.47;;
7753;SDS011;3921;42.266;23.122;2023-02-07T08:00:58;10.30;;;6.73;;
7753;SDS011;3921;42.266;23.122;2023-02-07T08:03:25;10.67;;;6.40;;
7753;SDS011;3921;42.266;23.122;2023-02-07T08:05:53;10.33;;;6.57;;
7753;SDS011;3921;42.266;23.122;2023-02-07T08:08:20;9.57;;;5.83;;
7753;SDS011;3921;42.266;23.122;2023-02-07T08:10:49;9.40;;;5.87;;
7753;SDS011;3921;42.266;23.122;2023-02-07T08:13:17;8.30;;;5.40;;
7753;SDS011;3921;42.266;23.122;2023-02-07T08:15:44;10.20;;;6.13;;
7753;SDS011;3921;42.266;23.122;2023-02-07T08:18:11;9.17;;;5.47;;
7753;SDS011;3921;42.266;23.122;2023-02-07T08:20:39;8.10;;;5.93;;
7753;SDS011;3921;42.266;23.122;2023-02-07T08:23:06;11.30;;;6.67;;
7753;SDS011;3921;42.266;23.122;2023-02-07T08:25:36;6.43;;;4.97;;
7753;SDS011;3921;42.266;23.122;2023-02-07T08:28:05;8.53;;;5.40;;
7753;SDS011;3921;42.266;23.122;2023-02-07T08:30:32;7.50;;;4.70;;
7753;SDS011;3921;42.266;23.122;2023-02-07T08:33:00;7.67;;;5.30;;
7753;SDS011;3921;42.266;23.122;2023-02-07T08:35:27;6.60;;;5.00;;
7753;SDS011;3921;42.266;23.122;2023-02-07T08:38:03;8.10;;;5.07;;
7753;SDS011;3921;42.266;23.122;2023-02-07T08:40:30;12.27;;;6.00;;
7753;SDS011;3921;42.266;23.122;2023-02-07T08:42:58;11.27;;;6.27;;
7753;SDS011;3921;42.266;23.122;2023-02-07T08:45:27;8.37;;;5.60;;
7753;SDS011;3921;42.266;23.122;2023-02-07T08:47:56;9.73;;;5.97;;
7753;SDS011;3921;42.266;23.122;2023-02-07T08:50:24;10.40;;;7.53;;
7753;SDS011;3921;42.266;23.122;2023-02-07T08:52:51;14.17;;;6.57;;
7753;SDS011;3921;42.266;23.122;2023-02-07T08:55:18;9.70;;;5.60;;
7753;SDS011;3921;42.266;23.122;2023-02-07T08:57:45;9.77;;;6.57;;
7753;SDS011;3921;42.266;23.122;2023-02-07T09:00:13;7.87;;;5.00;;
7753;SDS011;3921;42.266;23.122;2023-02-07T09:02:43;10.03;;;6.13;;
7753;SDS011;3921;42.266;23.122;2023-02-07T09:05:10;8.97;;;5.63;;
7753;SDS011;3921;42.266;23.122;2023-02-07T09:07:38;7.53;;;5.27;;
7753;SDS011;3921;42.266;23.122;2023-02-07T09:10:06;8.90;;;6.10;;
7753;SDS011;3921;42.266;23.122;2023-02-07T09:12:39;10.47;;;5.37;;
7753;SDS011;3921;42.266;23.122;2023-02-07T09:15:08;9.90;;;4.70;;
7753;SDS011;3921;42.266;23.122;2023-02-07T09:17:53;11.10;;;6.30;;
7753;SDS011;3921;42.266;23.122;2023-02-07T09:20:20;8.90;;;5.03;;
7753;SDS011;3921;42.266;23.122;2023-02-07T09:22:48;9.07;;;4.93;;
7753;SDS011;3921;42.266;23.122;2023-02-07T09:25:32;10.47;;;5.80;;
7753;SDS011;3921;42.266;23.122;2023-02-07T09:27:59;11.27;;;5.53;;
7753;SDS011;3921;42.266;23.122;2023-02-07T09:30:27;13.20;;;7.17;;
7753;SDS011;3921;42.266;23.122;2023-02-07T09:32:59;12.70;;;6.50;;
7753;SDS011;3921;42.266;23.122;2023-02-07T09:35:27;10.43;;;6.10;;
7753;SDS011;3921;42.266;23.122;2023-02-07T09:37:54;10.77;;;4.80;;
7753;SDS011;3921;42.266;23.122;2023-02-07T09:40:22;11.17;;;5.63;;
7753;SDS011;3921;42.266;23.122;2023-02-07T09:42:57;7.70;;;4.23;;
7753;SDS011;3921;42.266;23.122;2023-02-07T09:45:36;9.57;;;5.23;;
7753;SDS011;3921;42.266;23.122;2023-02-07T09:48:13;8.47;;;4.63;;
7753;SDS011;3921;42.266;23.122;2023-02-07T09:50:46;5.63;;;3.53;;
7753;SDS011;3921;42.266;23.122;2023-02-07T09:53:19;5.67;;;3.73;;
7753;SDS011;3921;42.266;23.122;2023-02-07T09:55:54;5.00;;;3.53;;
7753;SDS011;3921;42.266;23.122;2023-02-07T09:58:26;6.03;;;3.50;;
7753;SDS011;3921;42.266;23.122;2023-02-07T10:01:02;5.50;;;3.70;;
7753;SDS011;3921;42.266;23.122;2023-02-07T10:03:40;7.23;;;4.77;;
7753;SDS011;3921;42.266;23.122;2023-02-07T10:06:14;4.90;;;4.07;;
7753;SDS011;3921;42.266;23.122;2023-02-07T10:08:46;6.20;;;4.70;;
7753;SDS011;3921;42.266;23.122;2023-02-07T10:11:19;6.80;;;4.47;;
7753;SDS011;3921;42.266;23.122;2023-02-07T10:14:12;7.70;;;4.77;;
7753;SDS011;3921;42.266;23.122;2023-02-07T10:16:56;11.43;;;6.60;;
7753;SDS011;3921;42.266;23.122;2023-02-07T10:19:43;8.63;;;5.63;;
7753;SDS011;3921;42.266;23.122;2023-02-07T10:22:19;5.77;;;3.37;;
7753;SDS011;3921;42.266;23.122;2023-02-07T10:25:02;4.60;;;2.40;;
7753;SDS011;3921;42.266;23.122;2023-02-07T10:27:41;4.73;;;3.20;;
7753;SDS011;3921;42.266;23.122;2023-02-07T10:30:18;5.03;;;2.70;;
7753;SDS011;3921;42.266;23.122;2023-02-07T10:32:51;4.13;;;2.43;;
7753;SDS011;3921;42.266;23.122;2023-02-07T10:38:32;3.33;;;2.33;;
7753;SDS011;3921;42.266;23.122;2023-02-07T10:41:08;6.27;;;3.50;;
7753;SDS011;3921;42.266;23.122;2023-02-07T10:43:41;4.23;;;2.53;;
7753;SDS011;3921;42.266;23.122;2023-02-07T10:46:11;9.03;;;4.27;;
7753;SDS011;3921;42.266;23.122;2023-02-07T10:48:41;6.40;;;3.40;;
7753;SDS011;3921;42.266;23.122;2023-02-07T10:51:11;4.00;;;2.70;;
7753;SDS011;3921;42.266;23.122;2023-02-07T10:53:49;4.50;;;2.90;;
7753;SDS011;3921;42.266;23.122;2023-02-07T10:56:27;5.63;;;2.63;;
7753;SDS011;3921;42.266;23.122;2023-02-07T10:58:56;5.00;;;2.60;;
7753;SDS011;3921;42.266;23.122;2023-02-07T11:01:25;3.57;;;3.10;;
7753;SDS011;3921;42.266;23.122;2023-02-07T11:03:53;3.33;;;3.03;;
7753;SDS011;3921;42.266;23.122;2023-02-07T11:06:25;5.67;;;3.70;;
7753;SDS011;3921;42.266;23.122;2023-02-07T11:09:11;6.23;;;3.80;;
7753;SDS011;3921;42.266;23.122;2023-02-07T11:11:46;6.80;;;4.43;;
7753;SDS011;3921;42.266;23.122;2023-02-07T11:14:15;5.67;;;3.30;;
7753;SDS011;3921;42.266;23.122;2023-02-07T11:16:45;7.77;;;3.53;;
7753;SDS011;3921;42.266;23.122;2023-02-07T11:19:14;6.20;;;3.37;;
7753;SDS011;3921;42.266;23.122;2023-02-07T11:21:44;5.37;;;2.83;;
7753;SDS011;3921;42.266;23.122;2023-02-07T11:24:16;5.10;;;3.67;;
7753;SDS011;3921;42.266;23.122;2023-02-07T11:26:55;5.07;;;3.60;;
7753;SDS011;3921;42.266;23.122;2023-02-07T11:29:28;5.03;;;3.20;;
7753;SDS011;3921;42.266;23.122;2023-02-07T11:31:57;7.43;;;3.93;;
7753;SDS011;3921;42.266;23.122;2023-02-07T11:34:38;4.93;;;3.23;;
7753;SDS011;3921;42.266;23.122;2023-02-07T11:37:17;7.43;;;4.50;;
7753;SDS011;3921;42.266;23.122;2023-02-07T11:39:50;6.27;;;3.90;;
7753;SDS011;3921;42.266;23.122;2023-02-07T11:42:19;6.97;;;4.30;;
7753;SDS011;3921;42.266;23.122;2023-02-07T11:44:48;4.77;;;3.50;;
7753;SDS011;3921;42.266;23.122;2023-02-07T11:47:18;5.83;;;4.13;;
7753;SDS011;3921;42.266;23.122;2023-02-07T11:49:49;6.73;;;4.20;;
7753;SDS011;3921;42.266;23.122;2023-02-07T11:52:20;4.73;;;3.60;;
7753;SDS011;3921;42.266;23.122;2023-02-07T11:54:50;5.77;;;4.10;;
7753;SDS011;3921;42.266;23.122;2023-02-07T11:57:21;5.47;;;3.70;;
7753;SDS011;3921;42.266;23.122;2023-02-07T11:59:53;7.80;;;4.00;;
7753;SDS011;3921;42.266;23.122;2023-02-07T12:02:31;7.07;;;4.00;;
7753;SDS011;3921;42.266;23.122;2023-02-07T12:05:07;10.07;;;6.07;;
7753;SDS011;3921;42.266;23.122;2023-02-07T12:07:41;9.77;;;3.73;;
7753;SDS011;3921;42.266;23.122;2023-02-07T12:10:15;3.63;;;3.00;;
7753;SDS011;3921;42.266;23.122;2023-02-07T12:12:47;5.43;;;3.50;;
7753;SDS011;3921;42.266;23.122;2023-02-07T12:15:18;6.03;;;3.73;;
7753;SDS011;3921;42.266;23.122;2023-02-07T12:17:53;4.07;;;3.50;;
7753;SDS011;3921;42.266;23.122;2023-02-07T12:20:25;6.43;;;3.73;;
7753;SDS011;3921;42.266;23.122;2023-02-07T12:22:55;4.37;;;3.40;;
7753;SDS011;3921;42.266;23.122;2023-02-07T12:25:31;6.80;;;3.63;;
7753;SDS011;3921;42.266;23.122;2023-02-07T12:28:09;7.07;;;3.63;;
7753;SDS011;3921;42.266;23.122;2023-02-07T12:30:44;6.67;;;4.07;;
7753;SDS011;3921;42.266;23.122;2023-02-07T12:33:18;4.40;;;3.47;;
7753;SDS011;3921;42.266;23.122;2023-02-07T12:35:54;5.00;;;3.50;;
7753;SDS011;3921;42.266;23.122;2023-02-07T12:38:28;6.33;;;4.00;;
7753;SDS011;3921;42.266;23.122;2023-02-07T12:41:04;5.30;;;3.30;;
7753;SDS011;3921;42.266;23.122;2023-02-07T12:43:39;6.93;;;3.50;;
7753;SDS011;3921;42.266;23.122;2023-02-07T12:46:17;7.80;;;2.90;;
7753;SDS011;3921;42.266;23.122;2023-02-07T12:49:04;6.07;;;4.30;;
7753;SDS011;3921;42.266;23.122;2023-02-07T12:51:49;5.70;;;3.63;;
7753;SDS011;3921;42.266;23.122;2023-02-07T12:54:28;8.23;;;4.57;;
7753;SDS011;3921;42.266;23.122;2023-02-07T12:57:06;3.83;;;2.87;;
7753;SDS011;3921;42.266;23.122;2023-02-07T12:59:44;4.27;;;3.07;;
7753;SDS011;3921;42.266;23.122;2023-02-07T13:02:26;4.20;;;3.30;;
7753;SDS011;3921;42.266;23.122;2023-02-07T13:08:09;5.80;;;3.43;;
7753;SDS011;3921;42.266;23.122;2023-02-07T13:13:56;4.67;;;3.57;;
7753;SDS011;3921;42.266;23.122;2023-02-07T13:16:35;5.17;;;3.20;;
7753;SDS011;3921;42.266;23.122;2023-02-07T13:19:10;5.17;;;3.70;;
7753;SDS011;3921;42.266;23.122;2023-02-07T13:21:49;6.33;;;3.43;;
7753;SDS011;3921;42.266;23.122;2023-02-07T13:24:22;6.43;;;4.00;;
7753;SDS011;3921;42.266;23.122;2023-02-07T13:26:53;5.50;;;4.00;;
7753;SDS011;3921;42.266;23.122;2023-02-07T13:29:24;6.47;;;3.83;;
7753;SDS011;3921;42.266;23.122;2023-02-07T13:31:57;8.83;;;3.83;;
7753;SDS011;3921;42.266;23.122;2023-02-07T13:34:28;6.83;;;4.27;;
7753;SDS011;3921;42.266;23.122;2023-02-07T13:36:59;6.23;;;4.03;;
7753;SDS011;3921;42.266;23.122;2023-02-07T13:39:33;6.63;;;4.37;;
7753;SDS011;3921;42.266;23.122;2023-02-07T13:42:11;5.07;;;3.83;;
7753;SDS011;3921;42.266;23.122;2023-02-07T13:44:50;9.40;;;5.00;;
7753;SDS011;3921;42.266;23.122;2023-02-07T13:47:31;7.07;;;4.53;;
7753;SDS011;3921;42.266;23.122;2023-02-07T13:50:03;6.50;;;4.40;;
7753;SDS011;3921;42.266;23.122;2023-02-07T13:52:42;5.73;;;4.13;;
7753;SDS011;3921;42.266;23.122;2023-02-07T13:55:19;7.10;;;3.97;;
7753;SDS011;3921;42.266;23.122;2023-02-07T13:57:53;7.07;;;4.10;;
7753;SDS011;3921;42.266;23.122;2023-02-07T14:03:34;7.20;;;4.47;;
7753;SDS011;3921;42.266;23.122;2023-02-07T14:06:15;7.93;;;4.07;;
7753;SDS011;3921;42.266;23.122;2023-02-07T14:08:56;6.23;;;4.27;;
7753;SDS011;3921;42.266;23.122;2023-02-07T14:11:29;6.83;;;4.30;;
7753;SDS011;3921;42.266;23.122;2023-02-07T14:16:55;6.93;;;5.00;;
7753;SDS011;3921;42.266;23.122;2023-02-07T14:22:20;6.67;;;4.27;;
7753;SDS011;3921;42.266;23.122;2023-02-07T14:30:57;6.07;;;3.80;;
7753;SDS011;3921;42.266;23.122;2023-02-07T14:33:31;7.03;;;4.37;;
7753;SDS011;3921;42.266;23.122;2023-02-07T14:36:05;6.03;;;3.73;;
7753;SDS011;3921;42.266;23.122;2023-02-07T14:38:57;6.10;;;4.10;;
7753;SDS011;3921;42.266;23.122;2023-02-07T14:41:28;6.83;;;4.70;;
7753;SDS011;3921;42.266;23.122;2023-02-07T14:43:57;14.60;;;7.37;;
7753;SDS011;3921;42.266;23.122;2023-02-07T14:46:28;9.40;;;5.20;;
7753;SDS011;3921;42.266;23.122;2023-02-07T14:49:02;7.33;;;4.40;;
7753;SDS011;3921;42.266;23.122;2023-02-07T14:51:38;6.17;;;4.10;;
7753;SDS011;3921;42.266;23.122;2023-02-07T14:54:13;6.87;;;4.20;;
7753;SDS011;3921;42.266;23.122;2023-02-07T14:56:48;7.63;;;4.50;;
7753;SDS011;3921;42.266;23.122;2023-02-07T14:59:23;6.90;;;4.73;;
7753;SDS011;3921;42.266;23.122;2023-02-07T15:01:54;7.20;;;4.77;;
7753;SDS011;3921;42.266;23.122;2023-02-07T15:04:23;7.77;;;5.20;;
7753;SDS011;3921;42.266;23.122;2023-02-07T15:06:50;7.00;;;5.10;;
7753;SDS011;3921;42.266;23.122;2023-02-07T15:09:23;10.00;;;5.33;;
7753;SDS011;3921;42.266;23.122;2023-02-07T15:11:51;10.10;;;6.50;;
7753;SDS011;3921;42.266;23.122;2023-02-07T15:14:25;14.03;;;5.17;;
7753;SDS011;3921;42.266;23.122;2023-02-07T15:16:55;9.53;;;4.93;;
7753;SDS011;3921;42.266;23.122;2023-02-07T15:19:28;8.53;;;4.90;;
7753;SDS011;3921;42.266;23.122;2023-02-07T15:22:00;7.67;;;4.60;;
7753;SDS011;3921;42.266;23.122;2023-02-07T15:24:29;6.93;;;4.40;;
7753;SDS011;3921;42.266;23.122;2023-02-07T15:27:03;7.53;;;4.70;;
7753;SDS011;3921;42.266;23.122;2023-02-07T15:29:32;7.27;;;4.63;;
7753;SDS011;3921;42.266;23.122;2023-02-07T15:32:01;11.50;;;6.27;;
7753;SDS011;3921;42.266;23.122;2023-02-07T15:34:47;12.47;;;7.23;;
7753;SDS011;3921;42.266;23.122;2023-02-07T15:37:15;11.53;;;6.60;;
7753;SDS011;3921;42.266;23.122;2023-02-07T15:39:45;10.47;;;6.30;;
7753;SDS011;3921;42.266;23.122;2023-02-07T15:42:14;10.20;;;5.83;;
7753;SDS011;3921;42.266;23.122;2023-02-07T15:44:46;10.97;;;6.43;;
7753;SDS011;3921;42.266;23.122;2023-02-07T15:50:19;9.83;;;6.53;;
7753;SDS011;3921;42.266;23.122;2023-02-07T15:52:48;11.43;;;6.67;;
7753;SDS011;3921;42.266;23.122;2023-02-07T15:55:20;11.03;;;6.47;;
7753;SDS011;3921;42.266;23.122;2023-02-07T15:57:55;10.07;;;6.20;;
7753;SDS011;3921;42.266;23.122;2023-02-07T16:00:27;9.20;;;6.60;;